createdAt,value
2017-05-22T00:00:53.532Z,14.80
2017-05-22T00:03:21.761Z,14.80
2017-05-22T00:05:49.984Z,14.80
2017-05-22T00:08:18.213Z,14.80
2017-05-22T00:10:46.427Z,14.80
2017-05-22T00:13:14.686Z,14.90
2017-05-22T00:15:42.943Z,15.10
2017-05-22T00:18:11.169Z,15.10
2017-05-22T00:20:39.384Z,15.10
2017-05-22T00:23:07.628Z,15.10
2017-05-22T00:25:35.847Z,15.00
2017-05-22T00:28:04.061Z,15.10
2017-05-22T00:30:32.284Z,15.20
2017-05-22T00:33:00.504Z,15.30
2017-05-22T00:35:28.723Z,15.20
2017-05-22T00:37:56.935Z,15.30
2017-05-22T00:40:25.159Z,15.20
2017-05-22T00:42:53.379Z,15.10
2017-05-22T00:45:21.615Z,15.10
2017-05-22T00:47:49.823Z,15.20
2017-05-22T00:50:18.051Z,15.20
2017-05-22T00:52:46.299Z,15.30
2017-05-22T00:55:14.545Z,15.40
2017-05-22T00:57:42.759Z,15.40
2017-05-22T01:00:10.983Z,15.50
2017-05-22T01:02:39.214Z,15.40
2017-05-22T01:05:07.423Z,15.10
2017-05-22T01:07:35.648Z,15.20
2017-05-22T01:10:03.874Z,15.30
2017-05-22T01:12:32.092Z,15.40
2017-05-22T01:15:00.315Z,15.20
2017-05-22T01:17:28.543Z,15.20
2017-05-22T01:19:56.763Z,15.20
2017-05-22T01:22:24.989Z,15.30
2017-05-22T01:24:53.215Z,15.30
2017-05-22T01:27:21.443Z,15.30
2017-05-22T01:29:49.662Z,15.30
2017-05-22T01:32:17.879Z,15.00
2017-05-22T01:34:46.115Z,14.90
2017-05-22T01:37:14.336Z,14.40
2017-05-22T01:39:42.565Z,14.40
2017-05-22T01:42:10.774Z,14.60
2017-05-22T01:44:39.004Z,14.80
2017-05-22T01:47:07.224Z,14.80
2017-05-22T01:49:35.458Z,14.70
2017-05-22T01:52:03.677Z,14.60
2017-05-22T01:54:31.929Z,14.60
2017-05-22T01:57:00.149Z,14.50
2017-05-22T01:59:28.367Z,14.40
2017-05-22T02:01:56.599Z,14.40
2017-05-22T02:04:24.806Z,14.10
2017-05-22T02:06:53.027Z,14.00
2017-05-22T02:09:21.254Z,13.80
2017-05-22T02:11:49.471Z,13.80
2017-05-22T02:14:17.698Z,14.00
2017-05-22T02:16:45.925Z,13.90
2017-05-22T02:19:14.140Z,13.90
2017-05-22T02:21:42.366Z,13.80
2017-05-22T02:24:10.597Z,13.80
2017-05-22T02:26:38.807Z,13.70
2017-05-22T02:29:07.035Z,13.60
2017-05-22T02:31:35.256Z,13.50
2017-05-22T02:34:03.476Z,13.50
2017-05-22T02:36:31.697Z,13.50
2017-05-22T02:38:59.916Z,13.50
2017-05-22T02:41:28.132Z,13.40
2017-05-22T02:43:56.364Z,13.30
2017-05-22T02:46:24.578Z,13.20
2017-05-22T02:48:52.836Z,13.30
2017-05-22T02:51:21.051Z,13.20
2017-05-22T02:53:49.280Z,13.40
2017-05-22T02:56:17.496Z,13.40
2017-05-22T02:58:45.715Z,13.40
2017-05-22T03:01:13.941Z,13.30
2017-05-22T03:03:42.160Z,13.40
2017-05-22T03:06:10.388Z,13.40
2017-05-22T03:08:38.612Z,13.40
2017-05-22T03:11:06.837Z,13.50
2017-05-22T03:13:35.056Z,13.50
2017-05-22T03:16:03.300Z,13.60
2017-05-22T03:18:31.519Z,13.60
2017-05-22T03:20:59.735Z,13.70
2017-05-22T03:23:27.968Z,13.70
2017-05-22T03:25:56.188Z,13.70
2017-05-22T03:28:24.409Z,13.60
2017-05-22T03:30:52.629Z,13.50
2017-05-22T03:33:20.847Z,13.40
2017-05-22T03:35:49.072Z,13.30
2017-05-22T03:38:17.300Z,13.30
2017-05-22T03:40:45.510Z,13.50
2017-05-22T03:43:13.744Z,13.60
2017-05-22T03:45:41.960Z,13.50
2017-05-22T03:48:10.183Z,13.40
2017-05-22T03:50:38.404Z,13.20
2017-05-22T03:53:06.625Z,13.10
2017-05-22T03:55:34.852Z,13.10
2017-05-22T03:58:03.065Z,13.10
2017-05-22T04:00:31.287Z,13.20
2017-05-22T04:02:59.503Z,13.20
2017-05-22T04:05:27.726Z,13.40
2017-05-22T04:07:55.940Z,13.50
2017-05-22T04:10:24.164Z,13.50
2017-05-22T04:12:52.381Z,13.80
2017-05-22T04:15:20.623Z,13.80
2017-05-22T04:17:48.844Z,13.70
2017-05-22T04:20:17.059Z,14.20
2017-05-22T04:22:45.473Z,14.10
2017-05-22T04:25:13.635Z,14.00
2017-05-22T04:27:41.857Z,14.00
2017-05-22T04:30:10.091Z,13.90
2017-05-22T04:32:38.326Z,13.90
2017-05-22T04:35:06.549Z,13.90
2017-05-22T04:37:34.777Z,13.90
2017-05-22T04:40:02.991Z,13.80
2017-05-22T04:42:31.215Z,13.80
2017-05-22T04:44:59.437Z,13.70
2017-05-22T04:47:27.655Z,13.60
2017-05-22T04:49:55.871Z,13.50
2017-05-22T04:52:24.122Z,13.50
2017-05-22T04:54:52.336Z,13.60
2017-05-22T04:57:20.556Z,13.80
2017-05-22T04:59:48.800Z,13.90
2017-05-22T05:02:17.019Z,14.10
2017-05-22T05:04:45.240Z,14.00
2017-05-22T05:07:13.467Z,14.10
2017-05-22T05:09:41.687Z,13.90
2017-05-22T05:12:09.919Z,13.90
2017-05-22T05:14:38.135Z,14.00
2017-05-22T05:17:06.353Z,14.30
2017-05-22T05:19:34.583Z,14.30
2017-05-22T05:22:02.809Z,14.60
2017-05-22T05:24:31.203Z,14.60
2017-05-22T05:26:59.422Z,14.80
2017-05-22T05:29:27.633Z,15.10
2017-05-22T05:31:55.861Z,15.40
2017-05-22T05:34:24.075Z,15.50
2017-05-22T05:36:52.298Z,15.30
2017-05-22T05:39:20.511Z,15.60
2017-05-22T05:41:48.731Z,16.00
2017-05-22T05:44:16.950Z,16.40
2017-05-22T05:46:45.180Z,16.60
2017-05-22T05:49:13.391Z,16.90
2017-05-22T05:51:41.615Z,17.40
2017-05-22T05:54:09.829Z,18.10
2017-05-22T05:56:38.063Z,18.00
2017-05-22T05:59:06.283Z,17.90
2017-05-22T06:01:34.500Z,17.90
2017-05-22T06:04:02.723Z,17.90
2017-05-22T06:06:30.937Z,18.10
2017-05-22T06:08:59.155Z,18.20
2017-05-22T06:11:27.373Z,19.00
2017-05-22T06:13:55.599Z,19.90
2017-05-22T06:16:23.813Z,19.50
2017-05-22T06:18:52.043Z,19.50
2017-05-22T06:21:20.263Z,19.90
2017-05-22T06:23:48.484Z,20.20
2017-05-22T06:26:16.701Z,20.70
2017-05-22T06:28:44.943Z,21.60
2017-05-22T06:31:13.158Z,21.30
2017-05-22T06:33:41.377Z,21.90
2017-05-22T06:36:09.603Z,21.90
2017-05-22T06:38:37.840Z,22.80
2017-05-22T06:41:06.069Z,23.00
2017-05-22T06:43:34.290Z,23.60
2017-05-22T06:46:02.514Z,24.00
2017-05-22T06:48:30.731Z,24.00
2017-05-22T06:50:58.954Z,24.20
2017-05-22T06:53:27.167Z,24.30
2017-05-22T06:55:55.386Z,23.70
2017-05-22T06:58:23.615Z,24.30
2017-05-22T07:00:51.839Z,24.90
2017-05-22T07:03:20.063Z,25.70
2017-05-22T07:05:48.310Z,25.80
2017-05-22T07:08:16.536Z,26.20
2017-05-22T07:10:44.746Z,25.10
2017-05-22T07:13:12.987Z,24.90
2017-05-22T07:15:40.435Z,24.80
2017-05-22T07:18:08.656Z,25.60
2017-05-22T07:20:36.876Z,26.10
2017-05-22T07:23:05.097Z,26.20
2017-05-22T07:25:33.315Z,26.70
2017-05-22T07:28:01.541Z,25.30
2017-05-22T07:30:29.763Z,25.40
2017-05-22T07:32:57.988Z,25.60
2017-05-22T07:35:26.211Z,25.40
2017-05-22T07:37:54.439Z,24.70
2017-05-22T07:40:22.658Z,25.00
2017-05-22T07:42:50.878Z,25.10
2017-05-22T07:45:19.113Z,24.70
2017-05-22T07:47:47.328Z,24.70
2017-05-22T07:50:15.556Z,24.60
2017-05-22T07:52:43.776Z,23.90
2017-05-22T07:55:11.227Z,23.90
2017-05-22T07:57:39.465Z,23.70
2017-05-22T08:00:07.691Z,24.10
2017-05-22T08:02:35.915Z,24.10
2017-05-22T08:05:04.135Z,24.20
2017-05-22T08:07:32.361Z,23.40
2017-05-22T08:10:00.587Z,23.70
2017-05-22T08:12:28.807Z,23.40
2017-05-22T08:14:57.032Z,23.40
2017-05-22T08:17:25.279Z,23.10
2017-05-22T08:19:53.496Z,22.50
2017-05-22T08:22:21.727Z,23.10
2017-05-22T08:24:49.975Z,22.30
2017-05-22T08:27:18.199Z,23.40
2017-05-22T08:29:46.434Z,23.50
2017-05-22T08:32:14.660Z,23.70
2017-05-22T08:34:42.107Z,23.70
2017-05-22T08:37:10.340Z,23.60
2017-05-22T08:39:38.557Z,24.00
2017-05-22T08:42:06.784Z,24.50
2017-05-22T08:44:34.999Z,24.70
2017-05-22T08:47:03.231Z,24.90
2017-05-22T08:49:31.451Z,25.30
2017-05-22T08:51:59.673Z,24.90
2017-05-22T08:54:27.888Z,24.70
2017-05-22T08:56:56.104Z,24.90
2017-05-22T08:59:24.324Z,25.10
2017-05-22T09:01:52.539Z,25.50
2017-05-22T09:04:20.767Z,24.40
2017-05-22T09:06:48.979Z,24.20
2017-05-22T09:09:17.207Z,25.10
2017-05-22T09:11:45.432Z,26.10
2017-05-22T09:14:13.667Z,26.50
2017-05-22T09:16:41.881Z,25.80
2017-05-22T09:19:10.125Z,27.10
2017-05-22T09:21:38.353Z,27.40
2017-05-22T09:24:06.583Z,26.90
2017-05-22T09:26:34.806Z,27.10
2017-05-22T09:29:03.025Z,26.70
2017-05-22T09:31:31.246Z,27.10
2017-05-22T09:33:59.463Z,25.00
2017-05-22T09:36:27.692Z,25.30
2017-05-22T09:38:55.911Z,26.10
2017-05-22T09:41:24.142Z,26.70
2017-05-22T09:43:52.368Z,26.80
2017-05-22T09:46:20.595Z,26.20
2017-05-22T09:48:48.815Z,25.60
2017-05-22T09:51:17.047Z,25.60
2017-05-22T09:53:45.264Z,26.40
2017-05-22T09:56:13.507Z,27.40
2017-05-22T09:58:41.723Z,26.10
2017-05-22T10:01:09.939Z,27.40
2017-05-22T10:03:38.173Z,26.90
2017-05-22T10:06:06.403Z,24.10
2017-05-22T10:08:34.630Z,26.00
2017-05-22T10:11:02.851Z,26.50
2017-05-22T10:13:31.085Z,27.50
2017-05-22T10:15:59.299Z,28.10
2017-05-22T10:18:27.519Z,28.20
2017-05-22T10:20:55.744Z,28.60
2017-05-22T10:23:23.963Z,28.30
2017-05-22T10:25:52.183Z,28.10
2017-05-22T10:28:20.403Z,27.80
2017-05-22T10:30:48.626Z,28.00
2017-05-22T10:33:16.865Z,27.90
2017-05-22T10:35:45.083Z,28.00
2017-05-22T10:38:13.308Z,26.40
2017-05-22T10:40:41.539Z,27.50
2017-05-22T10:43:09.756Z,27.90
2017-05-22T10:45:37.975Z,27.50
2017-05-22T10:48:06.187Z,26.90
2017-05-22T10:50:34.413Z,26.10
2017-05-22T10:53:02.628Z,25.30
2017-05-22T10:55:30.851Z,26.30
2017-05-22T10:57:59.069Z,25.20
2017-05-22T11:00:27.291Z,25.00
2017-05-22T11:02:55.507Z,23.80
2017-05-22T11:05:23.727Z,25.00
2017-05-22T11:07:51.952Z,25.00
2017-05-22T11:10:20.191Z,25.30
2017-05-22T11:12:48.416Z,25.60
2017-05-22T11:15:16.637Z,26.40
2017-05-22T11:17:44.858Z,27.20
2017-05-22T11:20:13.077Z,27.60
2017-05-22T11:22:41.303Z,26.80
2017-05-22T11:25:09.519Z,28.10
2017-05-22T11:27:37.748Z,27.80
2017-05-22T11:30:05.967Z,27.50
2017-05-22T11:32:34.187Z,27.70
2017-05-22T11:35:02.403Z,26.90
2017-05-22T11:37:30.632Z,26.40
2017-05-22T11:39:58.845Z,26.30
2017-05-22T11:42:27.096Z,26.30
2017-05-22T11:44:55.312Z,26.50
2017-05-22T11:47:23.531Z,26.40
2017-05-22T11:49:51.756Z,25.80
2017-05-22T11:52:19.985Z,25.50
2017-05-22T11:54:48.207Z,25.50
2017-05-22T11:57:16.428Z,25.60
2017-05-22T11:59:44.652Z,26.10
2017-05-22T12:02:12.877Z,25.20
2017-05-22T12:04:41.099Z,25.30
2017-05-22T12:07:09.323Z,25.90
2017-05-22T12:09:37.555Z,25.80
2017-05-22T12:12:05.772Z,24.30
2017-05-22T12:14:34.019Z,25.00
2017-05-22T12:17:02.244Z,25.50
2017-05-22T12:19:30.463Z,25.70
2017-05-22T12:21:59.080Z,25.80
2017-05-22T12:24:27.296Z,25.50
2017-05-22T12:26:55.527Z,25.10
2017-05-22T12:29:23.751Z,24.70
2017-05-22T12:31:51.975Z,24.90
2017-05-22T12:34:20.197Z,24.80
2017-05-22T12:36:48.427Z,24.20
2017-05-22T12:39:16.643Z,24.70
2017-05-22T12:41:44.877Z,25.30
2017-05-22T12:44:13.093Z,25.40
2017-05-22T12:46:41.323Z,25.50
2017-05-22T12:49:09.544Z,25.70
2017-05-22T12:51:37.766Z,25.80
2017-05-22T12:54:05.991Z,26.40
2017-05-22T12:56:34.215Z,26.70
2017-05-22T12:59:02.436Z,26.80
2017-05-22T13:01:30.653Z,27.20
2017-05-22T13:03:58.871Z,27.60
2017-05-22T13:06:27.083Z,27.10
2017-05-22T13:08:55.311Z,26.50
2017-05-22T13:11:23.527Z,26.80
2017-05-22T13:13:51.757Z,26.80
2017-05-22T13:16:19.975Z,26.30
2017-05-22T13:18:48.208Z,25.10
2017-05-22T13:21:16.428Z,25.80
2017-05-22T13:23:44.668Z,26.10
2017-05-22T13:26:12.883Z,25.10
2017-05-22T13:28:41.105Z,25.60
2017-05-22T13:31:09.323Z,26.10
2017-05-22T13:33:37.544Z,25.40
2017-05-22T13:36:05.764Z,24.80
2017-05-22T13:38:33.983Z,25.40
2017-05-22T13:41:02.203Z,25.70
2017-05-22T13:43:30.423Z,26.00
2017-05-22T13:45:59.419Z,26.10
2017-05-22T13:48:27.640Z,25.60
2017-05-22T13:50:56.212Z,23.60
2017-05-22T13:53:24.507Z,23.60
2017-05-22T13:55:52.759Z,24.30
2017-05-22T13:58:20.985Z,24.90
2017-05-22T14:00:50.139Z,25.60
2017-05-22T14:03:18.374Z,25.40
2017-05-22T14:05:46.584Z,25.90
2017-05-22T14:08:14.815Z,26.20
2017-05-22T14:10:43.036Z,26.30
2017-05-22T14:13:11.268Z,26.50
2017-05-22T14:15:39.486Z,26.50
2017-05-22T14:18:07.719Z,26.00
2017-05-22T14:20:35.940Z,26.00
2017-05-22T14:23:04.164Z,25.60
2017-05-22T14:25:32.431Z,25.60
2017-05-22T14:28:00.660Z,26.10
2017-05-22T14:30:28.874Z,26.30
2017-05-22T14:32:57.122Z,26.60
2017-05-22T14:35:25.347Z,26.60
2017-05-22T14:37:53.559Z,26.50
2017-05-22T14:40:21.787Z,26.70
2017-05-22T14:42:50.008Z,26.30
2017-05-22T14:45:18.248Z,26.50
2017-05-22T14:47:46.460Z,26.60
2017-05-22T14:50:14.693Z,26.00
2017-05-22T14:52:42.960Z,26.20
2017-05-22T14:55:11.176Z,26.30
2017-05-22T14:57:39.418Z,25.90
2017-05-22T15:00:07.631Z,26.00
2017-05-22T15:02:35.852Z,26.20
2017-05-22T15:05:04.076Z,26.20
2017-05-22T15:07:32.299Z,26.00
2017-05-22T15:10:00.539Z,25.60
2017-05-22T15:12:28.764Z,25.30
2017-05-22T15:14:56.980Z,24.70
2017-05-22T15:17:25.204Z,25.00
2017-05-22T15:19:53.417Z,25.20
2017-05-22T15:22:21.647Z,25.00
2017-05-22T15:24:49.863Z,25.30
2017-05-22T15:27:18.091Z,24.10
2017-05-22T15:29:46.316Z,23.40
2017-05-22T15:32:14.552Z,23.80
2017-05-22T15:34:42.776Z,23.70
2017-05-22T15:37:11.003Z,24.20
2017-05-22T15:39:39.223Z,24.20
2017-05-22T15:42:07.451Z,24.60
2017-05-22T15:44:35.671Z,24.60
2017-05-22T15:47:03.892Z,24.20
2017-05-22T15:49:32.112Z,24.50
2017-05-22T15:52:00.337Z,24.70
2017-05-22T15:54:28.557Z,24.70
2017-05-22T15:56:56.786Z,24.30
2017-05-22T15:59:25.004Z,24.50
2017-05-22T16:01:53.221Z,24.60
2017-05-22T16:04:21.503Z,24.70
2017-05-22T16:06:49.743Z,24.50
2017-05-22T16:09:17.985Z,24.40
2017-05-22T16:11:46.198Z,24.20
2017-05-22T16:14:14.419Z,24.20
2017-05-22T16:16:42.635Z,24.10
2017-05-22T16:19:10.855Z,24.00
2017-05-22T16:21:39.081Z,24.00
2017-05-22T16:24:07.310Z,24.00
2017-05-22T16:26:35.527Z,23.80
2017-05-22T16:29:03.747Z,23.90
2017-05-22T16:31:31.975Z,23.90
2017-05-22T16:34:00.199Z,23.90
2017-05-22T16:36:28.429Z,23.50
2017-05-22T16:38:56.654Z,23.60
2017-05-22T16:41:24.875Z,23.80
2017-05-22T16:43:53.101Z,23.70
2017-05-22T16:46:21.331Z,23.60
2017-05-22T16:48:49.563Z,23.60
2017-05-22T16:51:17.780Z,23.70
2017-05-22T16:53:46.017Z,23.60
2017-05-22T16:56:14.228Z,23.60
2017-05-22T16:58:42.457Z,23.40
2017-05-22T17:01:10.672Z,23.40
2017-05-22T17:03:38.901Z,23.50
2017-05-22T17:06:07.108Z,23.20
2017-05-22T17:08:35.338Z,23.00
2017-05-22T17:11:03.556Z,22.90
2017-05-22T17:13:31.788Z,23.10
2017-05-22T17:16:00.007Z,23.10
2017-05-22T17:18:28.237Z,22.90
2017-05-22T17:20:56.466Z,22.90
2017-05-22T17:23:24.688Z,22.90
2017-05-22T17:25:52.912Z,22.70
2017-05-22T17:28:21.132Z,22.80
2017-05-22T17:30:49.353Z,22.90
2017-05-22T17:33:17.579Z,22.70
2017-05-22T17:35:45.820Z,22.70
2017-05-22T17:38:14.045Z,22.70
2017-05-22T17:40:42.266Z,22.80
2017-05-22T17:43:10.488Z,22.70
2017-05-22T17:45:38.704Z,22.50
2017-05-22T17:48:06.936Z,22.50
2017-05-22T17:50:35.155Z,22.50
2017-05-22T17:53:03.376Z,22.50
2017-05-22T17:55:31.612Z,22.50
2017-05-22T17:57:59.832Z,22.60
2017-05-22T18:00:28.044Z,22.50
2017-05-22T18:02:56.269Z,22.30
2017-05-22T18:05:24.481Z,22.40
2017-05-22T18:07:52.723Z,22.20
2017-05-22T18:10:20.940Z,22.30
2017-05-22T18:12:49.165Z,22.20
2017-05-22T18:15:17.407Z,22.20
2017-05-22T18:17:45.619Z,22.20
2017-05-22T18:20:13.851Z,21.80
2017-05-22T18:22:42.071Z,21.70
2017-05-22T18:25:10.312Z,21.80
2017-05-22T18:27:38.528Z,21.90
2017-05-22T18:30:06.757Z,21.90
2017-05-22T18:32:34.980Z,21.70
2017-05-22T18:35:03.223Z,21.50
2017-05-22T18:37:31.447Z,21.50
2017-05-22T18:39:59.680Z,21.50
2017-05-22T18:42:27.908Z,21.40
2017-05-22T18:44:56.131Z,21.40
2017-05-22T18:47:24.359Z,21.30
2017-05-22T18:49:52.575Z,21.20
2017-05-22T18:52:20.803Z,21.10
2017-05-22T18:54:49.024Z,21.00
2017-05-22T18:57:17.275Z,20.90
2017-05-22T18:59:45.503Z,20.90
2017-05-22T19:02:13.727Z,20.80
2017-05-22T19:04:41.943Z,20.70
2017-05-22T19:07:10.188Z,20.60
2017-05-22T19:09:38.400Z,20.50
2017-05-22T19:12:06.629Z,20.60
2017-05-22T19:14:34.848Z,20.50
2017-05-22T19:17:03.071Z,20.40
2017-05-22T19:19:31.292Z,20.30
2017-05-22T19:21:59.520Z,20.10
2017-05-22T19:24:27.740Z,20.10
2017-05-22T19:26:55.967Z,20.00
2017-05-22T19:29:24.207Z,19.60
2017-05-22T19:31:52.436Z,19.60
2017-05-22T19:34:20.665Z,19.20
2017-05-22T19:36:48.879Z,18.40
2017-05-22T19:39:17.400Z,18.20
2017-05-22T19:41:45.631Z,18.10
2017-05-22T19:44:13.848Z,18.00
2017-05-22T19:46:42.084Z,17.80
2017-05-22T19:49:12.408Z,17.80
2017-05-22T19:51:40.667Z,17.60
2017-05-22T19:54:08.883Z,17.20
2017-05-22T19:56:37.119Z,17.00
2017-05-22T19:59:05.330Z,16.90
2017-05-22T20:01:33.551Z,16.80
2017-05-22T20:04:01.770Z,16.70
2017-05-22T20:06:29.988Z,16.70
2017-05-22T20:08:58.264Z,16.60
2017-05-22T20:11:26.487Z,16.60
2017-05-22T20:13:55.571Z,16.40
2017-05-22T20:16:23.802Z,16.40
2017-05-22T20:18:52.020Z,16.40
2017-05-22T20:21:20.227Z,16.50
2017-05-22T20:23:48.447Z,16.40
2017-05-22T20:26:16.659Z,16.30
2017-05-22T20:28:44.887Z,16.10
2017-05-22T20:31:13.107Z,16.20
2017-05-22T20:33:41.329Z,16.30
2017-05-22T20:36:09.556Z,16.30
2017-05-22T20:38:37.777Z,16.20
2017-05-22T20:41:05.995Z,16.10
2017-05-22T20:43:34.213Z,15.90
2017-05-22T20:46:02.439Z,15.90
2017-05-22T20:48:31.803Z,15.80
2017-05-22T20:51:00.024Z,15.70
2017-05-22T20:53:28.248Z,15.40
2017-05-22T20:55:56.467Z,15.30
2017-05-22T20:58:24.692Z,15.30
2017-05-22T21:00:52.916Z,15.20
2017-05-22T21:03:21.139Z,15.20
2017-05-22T21:05:49.359Z,15.00
2017-05-22T21:08:17.585Z,14.80
2017-05-22T21:10:45.803Z,14.80
2017-05-22T21:13:14.036Z,14.90
2017-05-22T21:15:42.350Z,15.00
2017-05-22T21:18:10.560Z,14.90
2017-05-22T21:20:38.789Z,14.90
2017-05-22T21:23:07.017Z,14.90
2017-05-22T21:25:35.443Z,14.80
2017-05-22T21:28:03.827Z,14.60
2017-05-22T21:30:32.257Z,14.50
2017-05-22T21:33:01.096Z,14.40
2017-05-22T21:35:29.311Z,14.40
2017-05-22T21:37:58.377Z,14.50
2017-05-22T21:40:26.607Z,14.70
2017-05-22T21:42:54.834Z,14.50
2017-05-22T21:45:23.620Z,14.40
2017-05-22T21:47:51.841Z,14.20
2017-05-22T21:50:20.062Z,14.20
2017-05-22T21:52:48.287Z,14.30
2017-05-22T21:55:16.508Z,14.40
2017-05-22T21:57:44.739Z,14.30
2017-05-22T22:00:12.960Z,14.30
2017-05-22T22:02:41.184Z,14.20
2017-05-22T22:05:09.415Z,14.10
2017-05-22T22:07:37.632Z,14.10
2017-05-22T22:10:05.855Z,13.90
2017-05-22T22:12:34.080Z,13.90
2017-05-22T22:15:02.299Z,14.00
2017-05-22T22:17:30.532Z,14.00
2017-05-22T22:19:58.751Z,14.00
2017-05-22T22:22:26.996Z,13.90
2017-05-22T22:24:55.205Z,13.90
2017-05-22T22:27:23.428Z,14.10
2017-05-22T22:29:51.648Z,13.90
2017-05-22T22:32:19.879Z,13.90
2017-05-22T22:34:48.096Z,13.90
2017-05-22T22:37:16.324Z,13.90
2017-05-22T22:39:44.552Z,13.90
2017-05-22T22:42:12.784Z,13.70
2017-05-22T22:44:41.007Z,13.70
2017-05-22T22:47:09.248Z,13.60
2017-05-22T22:49:37.475Z,13.60
2017-05-22T22:52:05.691Z,13.70
2017-05-22T22:54:33.916Z,13.60
2017-05-22T22:57:02.140Z,13.50
2017-05-22T22:59:30.360Z,13.20
2017-05-22T23:01:58.583Z,13.20
2017-05-22T23:04:26.807Z,13.20
2017-05-22T23:06:55.028Z,13.20
2017-05-22T23:09:23.252Z,13.30
2017-05-22T23:11:51.475Z,13.30
2017-05-22T23:14:19.725Z,13.30
2017-05-22T23:16:47.948Z,13.30
2017-05-22T23:19:16.165Z,13.20
2017-05-22T23:21:44.383Z,13.20
2017-05-22T23:24:12.603Z,13.00
2017-05-22T23:26:40.823Z,12.80
2017-05-22T23:29:09.044Z,12.70
2017-05-22T23:31:37.285Z,12.80
2017-05-22T23:34:05.501Z,12.80
2017-05-22T23:36:33.720Z,12.80
2017-05-22T23:39:01.935Z,13.00
2017-05-22T23:41:30.156Z,13.10
2017-05-22T23:43:58.372Z,13.10
2017-05-22T23:46:26.605Z,13.00
2017-05-22T23:48:54.823Z,13.00
2017-05-22T23:51:23.047Z,12.90
2017-05-22T23:53:51.272Z,12.80
2017-05-22T23:56:19.496Z,12.80
2017-05-22T23:58:47.726Z,12.70
